Wichita Mid Continent Airport
KICT : now visible

Airfield :











YOU CAN JOIN US ON...

 
LOGIN :

Register | Disclaimer

   EN    FR    IT 

 









Legend :    VFR   Marginal VFR   IFR   Intensive IFR   Very Intensive IFR
Visi :
Ceiling :
>= 8 km
>= 3000ft
5 to 8 km
1000 to 3000 ft
1500m to 5 km
500 to 1000 ft
800 to 1500m
200 to 500 ft
< 800m
< 200 ft
Symbols :   Thunderstorms  Fog  Heavy snow  Heavy precipitations  Wind > 20 kt






- Airport Elevation : 1333 ft
- IATA code : ICT


KICT - Wichita Mid Continent

CURRENT METAR :
  • 232153Z 17019G28KT 10SM FEW045 FEW150 34/23 A2981 RMK AO2 PK WND 18033/2128 SLP077 T03390233

EXPIRED METARs :
  • 232053Z 18019G25KT 10SM FEW045 FEW250 34/23 A2982 RMK AO2 PK WND 15034/2032 SLP081 T03390228 58012
  • 231953Z 18020G31KT 10SM FEW040 FEW250 33/23 A2983 RMK AO2 PK WND 18031/1953 SLP084 T03280228

TAF KICT
Valid from the 23 at 18:00 until the 24 at 18:00 UTC


231738Z 2318/2418 18015G30KT P6SM FEW040 SCT250
FM240200 18015KT P6SM SCT250
FM240800 17015KT P6SM FEW070 SCT150 WS020/20045KT
FM241500 18015G30KT P6SM SCT070 BKN150
KZKC FIR / North America



MET'MAP, your aeronautical weather chart ! - Copyright ORBIFLY December 2007 - Disclaimer

ORBIFLY MET'MAP TEAM :

Programming & Development : Alexandra Zaïnal
Concept & original design : Baudouin d'Aumeries
Assistance for programming : Marc-Olivier Méhu
Technical & hardware support : Manuel Goepfert

Contact : metmap@orbifly.com




SOURCES & CREDITS :

   NOAA       Earth
Advisory